sensor_id;sensor_type;location;lat;lon;timestamp;P1;durP1;ratioP1;P2;durP2;ratioP2
6374;SDS011;35400;45.472;-122.822;2024-02-14T00:02:27;3.57;;;3.27;;
6374;SDS011;35400;45.472;-122.822;2024-02-14T00:04:54;3.90;;;3.40;;
6374;SDS011;35400;45.472;-122.822;2024-02-14T00:07:21;4.70;;;4.20;;
6374;SDS011;35400;45.472;-122.822;2024-02-14T00:09:48;4.87;;;4.37;;
6374;SDS011;35400;45.472;-122.822;2024-02-14T00:12:14;5.50;;;4.93;;
6374;SDS011;35400;45.472;-122.822;2024-02-14T00:14:41;5.80;;;4.63;;
6374;SDS011;35400;45.472;-122.822;2024-02-14T00:17:08;7.43;;;4.90;;
6374;SDS011;35400;45.472;-122.822;2024-02-14T00:19:36;4.97;;;3.97;;
6374;SDS011;35400;45.472;-122.822;2024-02-14T00:22:03;4.27;;;3.40;;
6374;SDS011;35400;45.472;-122.822;2024-02-14T00:24:30;3.53;;;3.07;;
6374;SDS011;35400;45.472;-122.822;2024-02-14T00:26:57;4.77;;;3.20;;
6374;SDS011;35400;45.472;-122.822;2024-02-14T00:29:26;3.20;;;2.90;;
6374;SDS011;35400;45.472;-122.822;2024-02-14T00:31:53;3.47;;;2.90;;
6374;SDS011;35400;45.472;-122.822;2024-02-14T00:34:20;3.10;;;2.80;;
6374;SDS011;35400;45.472;-122.822;2024-02-14T00:36:47;2.50;;;2.30;;
6374;SDS011;35400;45.472;-122.822;2024-02-14T00:39:14;3.37;;;3.07;;
6374;SDS011;35400;45.472;-122.822;2024-02-14T00:41:40;2.60;;;2.40;;
6374;SDS011;35400;45.472;-122.822;2024-02-14T00:44:07;3.50;;;2.80;;
6374;SDS011;35400;45.472;-122.822;2024-02-14T00:46:34;2.70;;;2.50;;
6374;SDS011;35400;45.472;-122.822;2024-02-14T00:49:01;3.73;;;2.50;;
6374;SDS011;35400;45.472;-122.822;2024-02-14T00:51:28;3.57;;;2.57;;
6374;SDS011;35400;45.472;-122.822;2024-02-14T00:53:55;2.60;;;2.40;;
6374;SDS011;35400;45.472;-122.822;2024-02-14T00:56:22;3.73;;;2.33;;
6374;SDS011;35400;45.472;-122.822;2024-02-14T00:58:49;3.57;;;2.60;;
6374;SDS011;35400;45.472;-122.822;2024-02-14T01:01:16;3.87;;;2.73;;
6374;SDS011;35400;45.472;-122.822;2024-02-14T01:03:43;3.17;;;2.87;;
6374;SDS011;35400;45.472;-122.822;2024-02-14T01:06:10;3.43;;;2.70;;
6374;SDS011;35400;45.472;-122.822;2024-02-14T01:08:36;3.43;;;3.00;;
6374;SDS011;35400;45.472;-122.822;2024-02-14T01:11:03;3.17;;;2.87;;
6374;SDS011;35400;45.472;-122.822;2024-02-14T01:13:30;3.30;;;3.00;;
6374;SDS011;35400;45.472;-122.822;2024-02-14T01:15:57;4.73;;;3.13;;
6374;SDS011;35400;45.472;-122.822;2024-02-14T01:18:24;3.37;;;2.83;;
6374;SDS011;35400;45.472;-122.822;2024-02-14T01:20:51;4.43;;;3.20;;
6374;SDS011;35400;45.472;-122.822;2024-02-14T01:23:19;7.20;;;3.87;;
6374;SDS011;35400;45.472;-122.822;2024-02-14T01:25:46;4.37;;;3.20;;
6374;SDS011;35400;45.472;-122.822;2024-02-14T01:28:13;11.83;;;6.47;;
6374;SDS011;35400;45.472;-122.822;2024-02-14T01:30:39;7.10;;;5.47;;
6374;SDS011;35400;45.472;-122.822;2024-02-14T01:33:07;7.20;;;6.00;;
6374;SDS011;35400;45.472;-122.822;2024-02-14T01:35:33;6.47;;;5.27;;
6374;SDS011;35400;45.472;-122.822;2024-02-14T01:38:00;5.27;;;4.70;;
6374;SDS011;35400;45.472;-122.822;2024-02-14T01:40:28;6.67;;;5.13;;
6374;SDS011;35400;45.472;-122.822;2024-02-14T01:42:55;6.83;;;5.57;;
6374;SDS011;35400;45.472;-122.822;2024-02-14T01:45:22;6.63;;;5.93;;
6374;SDS011;35400;45.472;-122.822;2024-02-14T01:47:49;10.00;;;8.10;;
6374;SDS011;35400;45.472;-122.822;2024-02-14T01:50:16;8.20;;;7.40;;
6374;SDS011;35400;45.472;-122.822;2024-02-14T01:52:44;7.73;;;6.90;;
6374;SDS011;35400;45.472;-122.822;2024-02-14T01:55:12;7.57;;;6.23;;
6374;SDS011;35400;45.472;-122.822;2024-02-14T01:57:39;7.97;;;6.03;;
6374;SDS011;35400;45.472;-122.822;2024-02-14T02:00:06;9.00;;;6.63;;
6374;SDS011;35400;45.472;-122.822;2024-02-14T02:02:43;8.27;;;6.50;;
6374;SDS011;35400;45.472;-122.822;2024-02-14T02:05:17;8.93;;;7.17;;
6374;SDS011;35400;45.472;-122.822;2024-02-14T02:07:44;7.80;;;6.80;;
6374;SDS011;35400;45.472;-122.822;2024-02-14T02:10:14;8.40;;;6.13;;
6374;SDS011;35400;45.472;-122.822;2024-02-14T02:12:42;7.67;;;6.63;;
6374;SDS011;35400;45.472;-122.822;2024-02-14T02:15:09;10.10;;;7.70;;
6374;SDS011;35400;45.472;-122.822;2024-02-14T02:17:39;9.10;;;7.43;;
6374;SDS011;35400;45.472;-122.822;2024-02-14T02:20:06;10.63;;;8.37;;
6374;SDS011;35400;45.472;-122.822;2024-02-14T02:22:34;9.23;;;7.80;;
6374;SDS011;35400;45.472;-122.822;2024-02-14T02:25:02;10.77;;;7.83;;
6374;SDS011;35400;45.472;-122.822;2024-02-14T02:27:35;9.60;;;8.10;;
6374;SDS011;35400;45.472;-122.822;2024-02-14T02:30:06;9.83;;;8.10;;
6374;SDS011;35400;45.472;-122.822;2024-02-14T02:32:36;10.00;;;8.43;;
6374;SDS011;35400;45.472;-122.822;2024-02-14T02:35:03;10.50;;;8.50;;
6374;SDS011;35400;45.472;-122.822;2024-02-14T02:37:30;12.63;;;9.03;;
6374;SDS011;35400;45.472;-122.822;2024-02-14T02:39:57;11.90;;;9.33;;
6374;SDS011;35400;45.472;-122.822;2024-02-14T02:42:24;11.00;;;9.17;;
6374;SDS011;35400;45.472;-122.822;2024-02-14T02:44:51;11.43;;;9.63;;
6374;SDS011;35400;45.472;-122.822;2024-02-14T02:47:20;12.33;;;9.80;;
6374;SDS011;35400;45.472;-122.822;2024-02-14T02:49:47;15.77;;;10.50;;
6374;SDS011;35400;45.472;-122.822;2024-02-14T02:52:13;12.07;;;10.27;;
6374;SDS011;35400;45.472;-122.822;2024-02-14T02:54:41;12.67;;;10.03;;
6374;SDS011;35400;45.472;-122.822;2024-02-14T02:57:10;12.93;;;9.73;;
6374;SDS011;35400;45.472;-122.822;2024-02-14T02:59:37;15.00;;;9.47;;
6374;SDS011;35400;45.472;-122.822;2024-02-14T03:02:08;11.27;;;9.50;;
6374;SDS011;35400;45.472;-122.822;2024-02-14T03:04:38;12.03;;;9.40;;
6374;SDS011;35400;45.472;-122.822;2024-02-14T03:07:05;13.03;;;9.93;;
6374;SDS011;35400;45.472;-122.822;2024-02-14T03:09:35;12.50;;;9.97;;
6374;SDS011;35400;45.472;-122.822;2024-02-14T03:12:04;11.50;;;8.87;;
6374;SDS011;35400;45.472;-122.822;2024-02-14T03:14:32;15.37;;;10.73;;
6374;SDS011;35400;45.472;-122.822;2024-02-14T03:16:59;14.60;;;10.17;;
6374;SDS011;35400;45.472;-122.822;2024-02-14T03:19:28;11.60;;;9.73;;
6374;SDS011;35400;45.472;-122.822;2024-02-14T03:21:56;12.57;;;9.57;;
6374;SDS011;35400;45.472;-122.822;2024-02-14T03:24:23;12.23;;;9.97;;
6374;SDS011;35400;45.472;-122.822;2024-02-14T03:26:52;12.90;;;9.73;;
6374;SDS011;35400;45.472;-122.822;2024-02-14T03:29:20;14.63;;;10.33;;
6374;SDS011;35400;45.472;-122.822;2024-02-14T03:31:47;13.87;;;9.73;;
6374;SDS011;35400;45.472;-122.822;2024-02-14T03:34:14;12.07;;;9.30;;
6374;SDS011;35400;45.472;-122.822;2024-02-14T03:36:41;12.70;;;10.20;;
6374;SDS011;35400;45.472;-122.822;2024-02-14T03:39:08;15.30;;;11.07;;
6374;SDS011;35400;45.472;-122.822;2024-02-14T03:41:36;18.37;;;12.13;;
6374;SDS011;35400;45.472;-122.822;2024-02-14T03:44:03;16.00;;;12.23;;
6374;SDS011;35400;45.472;-122.822;2024-02-14T03:46:32;18.07;;;12.27;;
6374;SDS011;35400;45.472;-122.822;2024-02-14T03:49:01;16.53;;;11.73;;
6374;SDS011;35400;45.472;-122.822;2024-02-14T03:51:28;16.17;;;11.60;;
6374;SDS011;35400;45.472;-122.822;2024-02-14T03:53:54;15.67;;;11.33;;
6374;SDS011;35400;45.472;-122.822;2024-02-14T03:56:21;16.90;;;11.87;;
6374;SDS011;35400;45.472;-122.822;2024-02-14T03:58:49;22.20;;;13.10;;
6374;SDS011;35400;45.472;-122.822;2024-02-14T04:01:16;18.07;;;12.40;;
6374;SDS011;35400;45.472;-122.822;2024-02-14T04:03:45;16.53;;;11.63;;
6374;SDS011;35400;45.472;-122.822;2024-02-14T04:06:14;16.63;;;11.50;;
6374;SDS011;35400;45.472;-122.822;2024-02-14T04:08:41;14.57;;;10.97;;
6374;SDS011;35400;45.472;-122.822;2024-02-14T04:11:07;14.00;;;10.50;;
6374;SDS011;35400;45.472;-122.822;2024-02-14T04:13:35;14.00;;;11.03;;
6374;SDS011;35400;45.472;-122.822;2024-02-14T04:16:02;14.43;;;10.97;;
6374;SDS011;35400;45.472;-122.822;2024-02-14T04:18:29;14.50;;;11.10;;
6374;SDS011;35400;45.472;-122.822;2024-02-14T04:20:56;14.53;;;11.37;;
6374;SDS011;35400;45.472;-122.822;2024-02-14T04:23:23;14.03;;;11.37;;
6374;SDS011;35400;45.472;-122.822;2024-02-14T04:25:51;16.07;;;12.57;;
6374;SDS011;35400;45.472;-122.822;2024-02-14T04:28:17;16.20;;;11.33;;
6374;SDS011;35400;45.472;-122.822;2024-02-14T04:30:44;16.10;;;12.00;;
6374;SDS011;35400;45.472;-122.822;2024-02-14T04:33:11;16.07;;;12.33;;
6374;SDS011;35400;45.472;-122.822;2024-02-14T04:35:39;18.93;;;12.17;;
6374;SDS011;35400;45.472;-122.822;2024-02-14T04:38:06;16.13;;;11.53;;
6374;SDS011;35400;45.472;-122.822;2024-02-14T04:40:34;14.40;;;11.20;;
6374;SDS011;35400;45.472;-122.822;2024-02-14T04:43:01;13.37;;;10.27;;
6374;SDS011;35400;45.472;-122.822;2024-02-14T04:45:28;15.30;;;9.97;;
6374;SDS011;35400;45.472;-122.822;2024-02-14T04:47:55;13.33;;;10.60;;
6374;SDS011;35400;45.472;-122.822;2024-02-14T04:50:22;12.87;;;9.53;;
6374;SDS011;35400;45.472;-122.822;2024-02-14T04:52:49;15.17;;;10.67;;
6374;SDS011;35400;45.472;-122.822;2024-02-14T04:55:15;13.83;;;11.03;;
6374;SDS011;35400;45.472;-122.822;2024-02-14T04:57:42;14.53;;;9.43;;
6374;SDS011;35400;45.472;-122.822;2024-02-14T05:00:09;12.60;;;10.10;;
6374;SDS011;35400;45.472;-122.822;2024-02-14T05:02:37;13.67;;;10.30;;
6374;SDS011;35400;45.472;-122.822;2024-02-14T05:05:03;12.47;;;9.80;;
6374;SDS011;35400;45.472;-122.822;2024-02-14T05:07:31;12.07;;;10.10;;
6374;SDS011;35400;45.472;-122.822;2024-02-14T05:09:59;16.67;;;10.73;;
6374;SDS011;35400;45.472;-122.822;2024-02-14T05:12:27;16.07;;;10.97;;
6374;SDS011;35400;45.472;-122.822;2024-02-14T05:14:54;15.03;;;10.53;;
6374;SDS011;35400;45.472;-122.822;2024-02-14T05:17:20;15.57;;;10.67;;
6374;SDS011;35400;45.472;-122.822;2024-02-14T05:19:48;14.70;;;10.87;;
6374;SDS011;35400;45.472;-122.822;2024-02-14T05:22:15;15.63;;;11.13;;
6374;SDS011;35400;45.472;-122.822;2024-02-14T05:24:41;18.17;;;11.20;;
6374;SDS011;35400;45.472;-122.822;2024-02-14T05:27:08;15.40;;;11.20;;
6374;SDS011;35400;45.472;-122.822;2024-02-14T05:29:35;13.70;;;10.83;;
6374;SDS011;35400;45.472;-122.822;2024-02-14T05:32:02;14.70;;;10.47;;
6374;SDS011;35400;45.472;-122.822;2024-02-14T05:34:29;15.43;;;11.07;;
6374;SDS011;35400;45.472;-122.822;2024-02-14T05:36:56;12.90;;;10.67;;
6374;SDS011;35400;45.472;-122.822;2024-02-14T05:39:23;14.63;;;11.30;;
6374;SDS011;35400;45.472;-122.822;2024-02-14T05:41:50;14.90;;;11.33;;
6374;SDS011;35400;45.472;-122.822;2024-02-14T05:44:20;16.13;;;11.80;;
6374;SDS011;35400;45.472;-122.822;2024-02-14T05:46:48;15.03;;;11.17;;
6374;SDS011;35400;45.472;-122.822;2024-02-14T05:49:15;13.50;;;11.20;;
6374;SDS011;35400;45.472;-122.822;2024-02-14T05:51:42;14.90;;;11.00;;
6374;SDS011;35400;45.472;-122.822;2024-02-14T05:54:08;15.87;;;11.70;;
6374;SDS011;35400;45.472;-122.822;2024-02-14T05:56:35;19.13;;;12.73;;
6374;SDS011;35400;45.472;-122.822;2024-02-14T05:59:02;16.37;;;11.97;;
6374;SDS011;35400;45.472;-122.822;2024-02-14T06:01:29;17.50;;;12.90;;
6374;SDS011;35400;45.472;-122.822;2024-02-14T06:03:56;17.80;;;13.17;;
6374;SDS011;35400;45.472;-122.822;2024-02-14T06:06:23;19.63;;;13.33;;
6374;SDS011;35400;45.472;-122.822;2024-02-14T06:08:50;16.73;;;13.33;;
6374;SDS011;35400;45.472;-122.822;2024-02-14T06:11:17;15.37;;;11.50;;
6374;SDS011;35400;45.472;-122.822;2024-02-14T06:13:47;17.83;;;13.13;;
6374;SDS011;35400;45.472;-122.822;2024-02-14T06:16:14;18.73;;;13.63;;
6374;SDS011;35400;45.472;-122.822;2024-02-14T06:19:13;22.37;;;14.37;;
6374;SDS011;35400;45.472;-122.822;2024-02-14T06:21:40;19.23;;;15.00;;
6374;SDS011;35400;45.472;-122.822;2024-02-14T06:24:06;18.97;;;13.50;;
6374;SDS011;35400;45.472;-122.822;2024-02-14T06:26:39;19.20;;;12.87;;
6374;SDS011;35400;45.472;-122.822;2024-02-14T06:29:08;17.90;;;12.63;;
6374;SDS011;35400;45.472;-122.822;2024-02-14T06:31:35;15.70;;;11.43;;
6374;SDS011;35400;45.472;-122.822;2024-02-14T06:34:01;16.33;;;12.17;;
6374;SDS011;35400;45.472;-122.822;2024-02-14T06:36:28;15.93;;;12.07;;
6374;SDS011;35400;45.472;-122.822;2024-02-14T06:38:55;17.80;;;12.10;;
6374;SDS011;35400;45.472;-122.822;2024-02-14T06:41:22;17.30;;;12.40;;
6374;SDS011;35400;45.472;-122.822;2024-02-14T06:43:49;18.10;;;12.53;;
6374;SDS011;35400;45.472;-122.822;2024-02-14T06:46:16;17.60;;;12.70;;
6374;SDS011;35400;45.472;-122.822;2024-02-14T06:48:45;16.80;;;11.67;;
6374;SDS011;35400;45.472;-122.822;2024-02-14T06:51:12;18.23;;;12.10;;
6374;SDS011;35400;45.472;-122.822;2024-02-14T06:53:39;14.17;;;10.33;;
6374;SDS011;35400;45.472;-122.822;2024-02-14T06:56:06;13.90;;;11.17;;
6374;SDS011;35400;45.472;-122.822;2024-02-14T06:58:34;17.97;;;11.80;;
6374;SDS011;35400;45.472;-122.822;2024-02-14T07:01:01;16.93;;;12.80;;
6374;SDS011;35400;45.472;-122.822;2024-02-14T07:03:29;17.97;;;13.20;;
6374;SDS011;35400;45.472;-122.822;2024-02-14T07:05:56;20.43;;;13.77;;
6374;SDS011;35400;45.472;-122.822;2024-02-14T07:08:23;20.17;;;13.30;;
6374;SDS011;35400;45.472;-122.822;2024-02-14T07:10:54;18.73;;;13.30;;
6374;SDS011;35400;45.472;-122.822;2024-02-14T07:13:22;20.40;;;13.80;;
6374;SDS011;35400;45.472;-122.822;2024-02-14T07:15:49;22.33;;;14.70;;
6374;SDS011;35400;45.472;-122.822;2024-02-14T07:18:15;21.13;;;14.43;;
6374;SDS011;35400;45.472;-122.822;2024-02-14T07:20:42;20.53;;;14.30;;
6374;SDS011;35400;45.472;-122.822;2024-02-14T07:23:09;20.23;;;14.10;;
6374;SDS011;35400;45.472;-122.822;2024-02-14T07:25:36;19.33;;;13.43;;
6374;SDS011;35400;45.472;-122.822;2024-02-14T07:28:03;18.60;;;13.50;;
6374;SDS011;35400;45.472;-122.822;2024-02-14T07:30:30;18.53;;;12.77;;
6374;SDS011;35400;45.472;-122.822;2024-02-14T07:32:57;18.90;;;13.33;;
6374;SDS011;35400;45.472;-122.822;2024-02-14T07:35:24;18.20;;;12.90;;
6374;SDS011;35400;45.472;-122.822;2024-02-14T07:37:51;22.17;;;14.57;;
6374;SDS011;35400;45.472;-122.822;2024-02-14T07:40:18;19.43;;;13.87;;
6374;SDS011;35400;45.472;-122.822;2024-02-14T07:42:46;20.90;;;13.80;;
6374;SDS011;35400;45.472;-122.822;2024-02-14T07:45:13;19.83;;;13.60;;
6374;SDS011;35400;45.472;-122.822;2024-02-14T07:47:40;21.00;;;12.47;;
6374;SDS011;35400;45.472;-122.822;2024-02-14T07:50:07;21.87;;;14.67;;
6374;SDS011;35400;45.472;-122.822;2024-02-14T07:52:34;21.97;;;13.97;;
6374;SDS011;35400;45.472;-122.822;2024-02-14T07:55:02;19.43;;;13.57;;
6374;SDS011;35400;45.472;-122.822;2024-02-14T07:57:29;19.37;;;13.43;;
6374;SDS011;35400;45.472;-122.822;2024-02-14T07:59:56;19.40;;;14.03;;
6374;SDS011;35400;45.472;-122.822;2024-02-14T08:02:22;18.23;;;13.70;;
6374;SDS011;35400;45.472;-122.822;2024-02-14T08:04:49;19.80;;;14.07;;
6374;SDS011;35400;45.472;-122.822;2024-02-14T08:07:16;21.13;;;13.90;;
6374;SDS011;35400;45.472;-122.822;2024-02-14T08:09:43;17.57;;;12.77;;
6374;SDS011;35400;45.472;-122.822;2024-02-14T08:12:10;20.17;;;13.83;;
6374;SDS011;35400;45.472;-122.822;2024-02-14T08:14:36;18.37;;;13.47;;
6374;SDS011;35400;45.472;-122.822;2024-02-14T08:17:03;21.50;;;15.00;;
6374;SDS011;35400;45.472;-122.822;2024-02-14T08:19:30;18.47;;;14.20;;
6374;SDS011;35400;45.472;-122.822;2024-02-14T08:21:57;20.97;;;14.13;;
6374;SDS011;35400;45.472;-122.822;2024-02-14T08:24:26;21.33;;;14.20;;
6374;SDS011;35400;45.472;-122.822;2024-02-14T08:26:53;18.40;;;13.57;;
6374;SDS011;35400;45.472;-122.822;2024-02-14T08:29:20;19.10;;;13.80;;
6374;SDS011;35400;45.472;-122.822;2024-02-14T08:31:47;19.03;;;12.73;;
6374;SDS011;35400;45.472;-122.822;2024-02-14T08:34:16;18.93;;;13.83;;
6374;SDS011;35400;45.472;-122.822;2024-02-14T08:36:43;19.90;;;13.43;;
6374;SDS011;35400;45.472;-122.822;2024-02-14T08:39:10;24.23;;;14.70;;
6374;SDS011;35400;45.472;-122.822;2024-02-14T08:41:37;21.20;;;12.87;;
6374;SDS011;35400;45.472;-122.822;2024-02-14T08:44:05;27.80;;;13.80;;
6374;SDS011;35400;45.472;-122.822;2024-02-14T08:46:33;19.97;;;13.90;;
6374;SDS011;35400;45.472;-122.822;2024-02-14T08:49:00;21.80;;;14.50;;
6374;SDS011;35400;45.472;-122.822;2024-02-14T08:51:28;23.33;;;14.77;;
6374;SDS011;35400;45.472;-122.822;2024-02-14T08:53:55;24.30;;;14.97;;
6374;SDS011;35400;45.472;-122.822;2024-02-14T08:56:25;19.03;;;13.03;;
6374;SDS011;35400;45.472;-122.822;2024-02-14T08:58:52;24.00;;;13.37;;
6374;SDS011;35400;45.472;-122.822;2024-02-14T09:01:21;23.63;;;14.13;;
6374;SDS011;35400;45.472;-122.822;2024-02-14T09:03:48;23.77;;;13.40;;
6374;SDS011;35400;45.472;-122.822;2024-02-14T09:06:15;16.57;;;12.60;;
6374;SDS011;35400;45.472;-122.822;2024-02-14T09:08:46;17.43;;;12.80;;
6374;SDS011;35400;45.472;-122.822;2024-02-14T09:11:19;18.80;;;13.13;;
6374;SDS011;35400;45.472;-122.822;2024-02-14T09:13:48;16.10;;;11.77;;
6374;SDS011;35400;45.472;-122.822;2024-02-14T09:16:19;15.70;;;11.43;;
6374;SDS011;35400;45.472;-122.822;2024-02-14T09:18:47;17.73;;;11.03;;
6374;SDS011;35400;45.472;-122.822;2024-02-14T09:21:14;17.13;;;11.77;;
6374;SDS011;35400;45.472;-122.822;2024-02-14T09:23:49;17.20;;;12.70;;
6374;SDS011;35400;45.472;-122.822;2024-02-14T09:26:16;18.83;;;12.20;;
6374;SDS011;35400;45.472;-122.822;2024-02-14T09:28:43;15.53;;;11.73;;
6374;SDS011;35400;45.472;-122.822;2024-02-14T09:31:10;16.50;;;11.73;;
6374;SDS011;35400;45.472;-122.822;2024-02-14T09:33:38;16.77;;;11.77;;
6374;SDS011;35400;45.472;-122.822;2024-02-14T09:36:05;20.60;;;12.40;;
6374;SDS011;35400;45.472;-122.822;2024-02-14T09:38:33;17.73;;;11.63;;
6374;SDS011;35400;45.472;-122.822;2024-02-14T09:41:14;15.43;;;11.40;;
6374;SDS011;35400;45.472;-122.822;2024-02-14T09:43:48;15.87;;;11.27;;
6374;SDS011;35400;45.472;-122.822;2024-02-14T09:46:15;27.43;;;16.93;;
6374;SDS011;35400;45.472;-122.822;2024-02-14T09:48:45;40.43;;;24.27;;
6374;SDS011;35400;45.472;-122.822;2024-02-14T09:51:22;33.53;;;24.20;;
6374;SDS011;35400;45.472;-122.822;2024-02-14T09:53:50;22.77;;;16.67;;
6374;SDS011;35400;45.472;-122.822;2024-02-14T09:56:20;19.57;;;14.17;;
6374;SDS011;35400;45.472;-122.822;2024-02-14T09:58:51;22.13;;;14.30;;
6374;SDS011;35400;45.472;-122.822;2024-02-14T10:01:23;19.10;;;14.10;;
6374;SDS011;35400;45.472;-122.822;2024-02-14T10:03:51;23.73;;;15.43;;
6374;SDS011;35400;45.472;-122.822;2024-02-14T10:06:18;23.37;;;16.87;;
6374;SDS011;35400;45.472;-122.822;2024-02-14T10:08:48;21.67;;;15.60;;
6374;SDS011;35400;45.472;-122.822;2024-02-14T10:11:19;21.50;;;14.27;;
6374;SDS011;35400;45.472;-122.822;2024-02-14T10:13:51;17.23;;;12.63;;
6374;SDS011;35400;45.472;-122.822;2024-02-14T10:16:19;23.60;;;14.13;;
6374;SDS011;35400;45.472;-122.822;2024-02-14T10:18:46;22.90;;;15.80;;
6374;SDS011;35400;45.472;-122.822;2024-02-14T10:21:16;48.33;;;15.17;;
6374;SDS011;35400;45.472;-122.822;2024-02-14T10:23:45;18.33;;;12.60;;
6374;SDS011;35400;45.472;-122.822;2024-02-14T10:26:16;20.10;;;13.37;;
6374;SDS011;35400;45.472;-122.822;2024-02-14T10:28:44;19.60;;;13.47;;
6374;SDS011;35400;45.472;-122.822;2024-02-14T10:31:11;19.10;;;13.17;;
6374;SDS011;35400;45.472;-122.822;2024-02-14T10:33:38;17.63;;;12.30;;
6374;SDS011;35400;45.472;-122.822;2024-02-14T10:36:07;19.57;;;13.70;;
6374;SDS011;35400;45.472;-122.822;2024-02-14T10:38:34;16.07;;;11.80;;
6374;SDS011;35400;45.472;-122.822;2024-02-14T10:41:02;18.20;;;12.47;;
6374;SDS011;35400;45.472;-122.822;2024-02-14T10:43:29;16.57;;;12.37;;
6374;SDS011;35400;45.472;-122.822;2024-02-14T10:46:00;15.43;;;11.90;;
6374;SDS011;35400;45.472;-122.822;2024-02-14T10:48:34;16.37;;;12.70;;
6374;SDS011;35400;45.472;-122.822;2024-02-14T10:51:04;16.73;;;11.50;;
6374;SDS011;35400;45.472;-122.822;2024-02-14T10:53:34;19.53;;;12.97;;
6374;SDS011;35400;45.472;-122.822;2024-02-14T10:56:02;19.40;;;12.87;;
6374;SDS011;35400;45.472;-122.822;2024-02-14T10:58:29;18.90;;;12.67;;
6374;SDS011;35400;45.472;-122.822;2024-02-14T11:00:58;16.23;;;12.00;;
6374;SDS011;35400;45.472;-122.822;2024-02-14T11:03:26;19.17;;;12.80;;
6374;SDS011;35400;45.472;-122.822;2024-02-14T11:05:55;20.63;;;13.70;;
6374;SDS011;35400;45.472;-122.822;2024-02-14T11:08:29;19.30;;;12.97;;
6374;SDS011;35400;45.472;-122.822;2024-02-14T11:11:01;27.43;;;14.23;;
6374;SDS011;35400;45.472;-122.822;2024-02-14T11:13:31;24.03;;;14.50;;
6374;SDS011;35400;45.472;-122.822;2024-02-14T11:16:01;24.53;;;13.43;;
6374;SDS011;35400;45.472;-122.822;2024-02-14T11:18:30;21.33;;;12.80;;
6374;SDS011;35400;45.472;-122.822;2024-02-14T11:21:02;22.67;;;13.90;;
6374;SDS011;35400;45.472;-122.822;2024-02-14T11:23:30;20.30;;;13.30;;
6374;SDS011;35400;45.472;-122.822;2024-02-14T11:26:00;21.23;;;13.87;;
6374;SDS011;35400;45.472;-122.822;2024-02-14T11:28:29;21.93;;;14.40;;
6374;SDS011;35400;45.472;-122.822;2024-02-14T11:31:02;19.13;;;12.80;;
6374;SDS011;35400;45.472;-122.822;2024-02-14T11:33:31;26.30;;;14.87;;
6374;SDS011;35400;45.472;-122.822;2024-02-14T11:35:59;20.07;;;13.30;;
6374;SDS011;35400;45.472;-122.822;2024-02-14T11:38:36;24.23;;;14.03;;
6374;SDS011;35400;45.472;-122.822;2024-02-14T11:41:05;21.10;;;13.60;;
6374;SDS011;35400;45.472;-122.822;2024-02-14T11:43:32;19.47;;;13.30;;
6374;SDS011;35400;45.472;-122.822;2024-02-14T11:45:59;20.63;;;13.00;;
6374;SDS011;35400;45.472;-122.822;2024-02-14T11:48:26;19.37;;;13.53;;
6374;SDS011;35400;45.472;-122.822;2024-02-14T11:50:55;19.50;;;13.60;;
6374;SDS011;35400;45.472;-122.822;2024-02-14T11:53:22;17.10;;;12.73;;
6374;SDS011;35400;45.472;-122.822;2024-02-14T11:55:51;16.90;;;12.10;;
6374;SDS011;35400;45.472;-122.822;2024-02-14T11:58:18;20.53;;;13.73;;
6374;SDS011;35400;45.472;-122.822;2024-02-14T12:00:46;19.97;;;12.23;;
6374;SDS011;35400;45.472;-122.822;2024-02-14T12:05:45;25.03;;;14.20;;
6374;SDS011;35400;45.472;-122.822;2024-02-14T12:08:13;22.60;;;14.67;;
6374;SDS011;35400;45.472;-122.822;2024-02-14T12:10:44;21.37;;;14.33;;
6374;SDS011;35400;45.472;-122.822;2024-02-14T12:13:19;16.93;;;13.07;;
6374;SDS011;35400;45.472;-122.822;2024-02-14T12:15:48;17.73;;;12.60;;
6374;SDS011;35400;45.472;-122.822;2024-02-14T12:18:17;16.93;;;11.83;;
6374;SDS011;35400;45.472;-122.822;2024-02-14T12:20:45;16.87;;;11.87;;
6374;SDS011;35400;45.472;-122.822;2024-02-14T12:23:15;19.13;;;12.43;;
6374;SDS011;35400;45.472;-122.822;2024-02-14T12:25:43;18.60;;;12.00;;
6374;SDS011;35400;45.472;-122.822;2024-02-14T12:28:18;18.07;;;12.60;;
6374;SDS011;35400;45.472;-122.822;2024-02-14T12:30:47;18.27;;;12.73;;
6374;SDS011;35400;45.472;-122.822;2024-02-14T12:33:26;17.90;;;13.17;;
6374;SDS011;35400;45.472;-122.822;2024-02-14T12:35:55;18.03;;;12.27;;
6374;SDS011;35400;45.472;-122.822;2024-02-14T12:38:24;19.00;;;12.67;;
6374;SDS011;35400;45.472;-122.822;2024-02-14T12:40:51;19.70;;;12.83;;
6374;SDS011;35400;45.472;-122.822;2024-02-14T12:43:20;20.03;;;12.77;;
6374;SDS011;35400;45.472;-122.822;2024-02-14T12:45:47;17.67;;;11.40;;
6374;SDS011;35400;45.472;-122.822;2024-02-14T12:48:14;15.83;;;11.83;;
6374;SDS011;35400;45.472;-122.822;2024-02-14T12:50:52;16.20;;;10.43;;
6374;SDS011;35400;45.472;-122.822;2024-02-14T12:53:20;17.10;;;11.43;;
6374;SDS011;35400;45.472;-122.822;2024-02-14T12:55:47;16.57;;;11.67;;
6374;SDS011;35400;45.472;-122.822;2024-02-14T12:58:14;16.10;;;11.13;;
6374;SDS011;35400;45.472;-122.822;2024-02-14T13:00:42;20.00;;;12.80;;
6374;SDS011;35400;45.472;-122.822;2024-02-14T13:03:10;17.77;;;11.20;;
6374;SDS011;35400;45.472;-122.822;2024-02-14T13:05:38;21.27;;;13.63;;
6374;SDS011;35400;45.472;-122.822;2024-02-14T13:08:06;16.50;;;12.00;;
6374;SDS011;35400;45.472;-122.822;2024-02-14T13:10:37;16.67;;;11.40;;
6374;SDS011;35400;45.472;-122.822;2024-02-14T13:13:03;21.07;;;13.40;;
6374;SDS011;35400;45.472;-122.822;2024-02-14T13:15:30;19.40;;;12.60;;
6374;SDS011;35400;45.472;-122.822;2024-02-14T13:17:57;21.93;;;13.20;;
6374;SDS011;35400;45.472;-122.822;2024-02-14T13:20:25;17.67;;;12.90;;
6374;SDS011;35400;45.472;-122.822;2024-02-14T13:22:53;16.93;;;13.07;;
6374;SDS011;35400;45.472;-122.822;2024-02-14T13:25:21;22.97;;;15.17;;
6374;SDS011;35400;45.472;-122.822;2024-02-14T13:27:47;21.70;;;13.80;;
6374;SDS011;35400;45.472;-122.822;2024-02-14T13:30:14;17.33;;;11.90;;
6374;SDS011;35400;45.472;-122.822;2024-02-14T13:32:41;20.57;;;14.13;;
6374;SDS011;35400;45.472;-122.822;2024-02-14T13:35:08;18.63;;;12.80;;
6374;SDS011;35400;45.472;-122.822;2024-02-14T13:37:37;22.60;;;16.17;;
6374;SDS011;35400;45.472;-122.822;2024-02-14T13:40:04;21.60;;;13.93;;
6374;SDS011;35400;45.472;-122.822;2024-02-14T13:42:36;18.33;;;13.23;;
6374;SDS011;35400;45.472;-122.822;2024-02-14T13:45:06;27.00;;;17.93;;
6374;SDS011;35400;45.472;-122.822;2024-02-14T13:47:37;26.30;;;18.07;;
6374;SDS011;35400;45.472;-122.822;2024-02-14T13:50:08;26.27;;;16.90;;
6374;SDS011;35400;45.472;-122.822;2024-02-14T13:52:35;24.93;;;16.50;;
6374;SDS011;35400;45.472;-122.822;2024-02-14T13:55:02;31.60;;;20.80;;
6374;SDS011;35400;45.472;-122.822;2024-02-14T13:57:31;27.10;;;18.53;;
6374;SDS011;35400;45.472;-122.822;2024-02-14T14:00:04;23.50;;;16.47;;
6374;SDS011;35400;45.472;-122.822;2024-02-14T14:02:37;22.37;;;14.87;;
6374;SDS011;35400;45.472;-122.822;2024-02-14T14:05:08;21.73;;;14.23;;
6374;SDS011;35400;45.472;-122.822;2024-02-14T14:07:35;20.73;;;14.03;;
6374;SDS011;35400;45.472;-122.822;2024-02-14T14:10:04;24.47;;;17.93;;